createdAt,value
2023-02-18T00:01:47.675Z,0.50
2023-02-18T00:04:15.307Z,0.32
2023-02-18T00:06:42.925Z,0.43
2023-02-18T00:09:12.504Z,0.30
2023-02-18T00:11:40.244Z,0.50
2023-02-18T00:14:11.757Z,0.50
2023-02-18T00:16:39.426Z,0.40
2023-02-18T00:19:09.227Z,0.57
2023-02-18T00:21:37.403Z,0.52
2023-02-18T00:24:06.142Z,0.50
2023-02-18T00:26:35.951Z,0.45
2023-02-18T00:29:04.198Z,0.45
2023-02-18T00:31:34.132Z,0.40
2023-02-18T00:34:02.642Z,0.60
2023-02-18T00:36:31.233Z,0.60
2023-02-18T00:39:03.478Z,0.40
2023-02-18T00:41:31.487Z,0.60
2023-02-18T00:44:00.964Z,0.63
2023-02-18T00:46:29.394Z,0.60
2023-02-18T00:48:57.207Z,0.70
2023-02-18T00:51:26.206Z,0.60
2023-02-18T00:53:54.032Z,0.60
2023-02-18T00:56:21.917Z,0.50
2023-02-18T00:58:50.184Z,0.50
2023-02-18T01:01:20.365Z,0.60
2023-02-18T01:03:48.188Z,0.68
2023-02-18T01:06:16.153Z,0.70
2023-02-18T01:08:43.735Z,0.55
2023-02-18T01:11:13.331Z,0.45
2023-02-18T01:13:42.277Z,0.60
2023-02-18T01:16:10.525Z,0.50
2023-02-18T01:18:40.213Z,0.95
2023-02-18T01:21:09.065Z,0.98
2023-02-18T01:23:38.550Z,0.50
2023-02-18T01:26:07.219Z,0.52
2023-02-18T01:28:35.100Z,0.93
2023-02-18T01:31:07.043Z,0.50
2023-02-18T01:33:35.427Z,0.70
2023-02-18T01:36:05.560Z,0.50
2023-02-18T01:38:33.330Z,0.80
2023-02-18T01:41:01.808Z,0.60
2023-02-18T01:43:29.926Z,0.70
2023-02-18T01:46:03.889Z,0.90
2023-02-18T01:48:35.936Z,0.80
2023-02-18T01:51:11.215Z,0.82
2023-02-18T01:53:46.759Z,0.85
2023-02-18T01:56:20.877Z,0.80
2023-02-18T01:58:49.177Z,1.10
2023-02-18T02:01:16.889Z,1.00
2023-02-18T02:03:44.419Z,0.80
2023-02-18T02:06:17.550Z,0.98
2023-02-18T02:08:46.706Z,0.82
2023-02-18T02:11:24.818Z,0.80
2023-02-18T02:14:07.398Z,0.70
2023-02-18T02:16:42.555Z,0.90
2023-02-18T02:19:34.343Z,0.80
2023-02-18T02:22:42.222Z,0.70
2023-02-18T02:25:20.590Z,0.73
2023-02-18T02:28:11.610Z,0.80
2023-02-18T02:31:18.618Z,0.65
2023-02-18T02:34:22.644Z,0.93
2023-02-18T02:36:58.882Z,0.82
2023-02-18T02:39:33.600Z,1.02
2023-02-18T02:42:11.154Z,0.98
2023-02-18T02:44:48.096Z,1.15
2023-02-18T02:47:26.563Z,1.13
2023-02-18T02:50:00.959Z,1.00
2023-02-18T02:52:33.798Z,1.38
2023-02-18T02:55:01.701Z,1.10
2023-02-18T02:57:48.153Z,1.20
2023-02-18T03:00:24.139Z,1.20
2023-02-18T03:03:18.398Z,1.50
2023-02-18T03:06:07.593Z,1.50
2023-02-18T03:08:45.265Z,1.77
2023-02-18T03:11:15.215Z,1.85
2023-02-18T03:13:54.763Z,1.55
2023-02-18T03:16:31.869Z,1.92
2023-02-18T03:19:07.460Z,1.70
2023-02-18T03:21:40.282Z,2.10
2023-02-18T03:24:15.386Z,1.63
2023-02-18T03:26:48.114Z,1.60
2023-02-18T03:29:19.206Z,1.75
2023-02-18T03:31:55.308Z,0.95
2023-02-18T03:34:29.810Z,1.70
2023-02-18T03:36:59.586Z,1.48
2023-02-18T03:39:30.442Z,1.77
2023-02-18T03:41:58.254Z,1.63
2023-02-18T03:44:27.401Z,1.27
2023-02-18T03:46:55.048Z,1.10
2023-02-18T03:49:22.935Z,1.30
2023-02-18T03:51:50.555Z,1.08
2023-02-18T03:54:18.188Z,1.13
2023-02-18T03:56:47.072Z,1.70
2023-02-18T03:59:14.738Z,1.20
2023-02-18T04:01:42.442Z,1.38
2023-02-18T04:04:10.183Z,1.20
2023-02-18T04:06:37.798Z,0.98
2023-02-18T04:09:08.824Z,1.08
2023-02-18T04:11:37.934Z,0.88
2023-02-18T04:14:07.481Z,1.00
2023-02-18T04:16:35.215Z,0.80
2023-02-18T04:19:02.788Z,0.90
2023-02-18T04:21:30.384Z,1.17
2023-02-18T04:23:58.021Z,0.82
2023-02-18T04:26:25.651Z,0.90
2023-02-18T04:28:53.295Z,0.98
2023-02-18T04:31:22.621Z,0.70
2023-02-18T04:33:50.249Z,1.10
2023-02-18T04:36:17.831Z,0.90
2023-02-18T04:38:46.076Z,2.35
2023-02-18T04:41:13.739Z,0.95
2023-02-18T04:43:41.341Z,0.82
2023-02-18T04:46:09.191Z,1.10
2023-02-18T04:48:38.337Z,1.00
2023-02-18T04:51:06.281Z,0.82
2023-02-18T04:53:34.480Z,0.80
2023-02-18T04:56:02.115Z,0.90
2023-02-18T04:58:29.648Z,0.90
2023-02-18T05:01:00.146Z,1.00
2023-02-18T05:03:27.832Z,1.00
2023-02-18T05:05:56.904Z,0.80
2023-02-18T05:08:24.709Z,0.80
2023-02-18T05:10:52.295Z,1.00
2023-02-18T05:13:20.162Z,0.88
2023-02-18T05:15:47.741Z,0.80
2023-02-18T05:18:15.451Z,0.98
2023-02-18T05:20:43.089Z,0.82
2023-02-18T05:23:11.998Z,1.05
2023-02-18T05:25:39.580Z,1.00
2023-02-18T05:28:07.249Z,1.00
2023-02-18T05:30:34.905Z,1.10
2023-02-18T05:33:02.520Z,0.93
2023-02-18T05:35:30.086Z,0.90
2023-02-18T05:37:57.622Z,1.00
2023-02-18T05:40:26.613Z,0.80
2023-02-18T05:42:54.200Z,1.20
2023-02-18T05:45:21.782Z,1.05
2023-02-18T05:47:49.425Z,1.50
2023-02-18T05:50:17.117Z,1.17
2023-02-18T05:52:44.717Z,1.30
2023-02-18T05:55:12.356Z,0.93
2023-02-18T05:57:41.504Z,1.17
2023-02-18T06:00:10.262Z,1.10
2023-02-18T06:02:38.021Z,1.17
2023-02-18T06:05:06.769Z,1.20
2023-02-18T06:07:34.541Z,0.90
2023-02-18T06:10:02.166Z,1.15
2023-02-18T06:12:29.716Z,1.10
2023-02-18T06:14:58.617Z,1.05
2023-02-18T06:17:26.148Z,0.85
2023-02-18T06:19:53.717Z,1.10
2023-02-18T06:22:22.182Z,1.00
2023-02-18T06:24:49.853Z,0.93
2023-02-18T06:27:17.449Z,0.90
2023-02-18T06:29:45.224Z,1.00
2023-02-18T06:32:14.182Z,0.93
2023-02-18T06:34:41.778Z,0.90
2023-02-18T06:37:09.437Z,1.02
2023-02-18T06:39:37.165Z,1.02
2023-02-18T06:42:05.024Z,1.13
2023-02-18T06:44:32.612Z,1.00
2023-02-18T06:47:00.193Z,1.35
2023-02-18T06:49:30.287Z,1.10
2023-02-18T06:51:57.965Z,1.23
2023-02-18T06:54:26.034Z,0.80
2023-02-18T06:56:53.780Z,1.25
2023-02-18T06:59:21.372Z,1.05
2023-02-18T07:01:48.922Z,0.95
2023-02-18T07:04:16.597Z,1.00
2023-02-18T07:06:45.528Z,1.00
2023-02-18T07:09:13.092Z,1.08
2023-02-18T07:11:40.764Z,1.38
2023-02-18T07:14:08.529Z,1.40
2023-02-18T07:16:36.206Z,1.38
2023-02-18T07:19:03.902Z,0.95
2023-02-18T07:21:31.578Z,1.05
2023-02-18T07:24:00.658Z,0.75
2023-02-18T07:26:28.311Z,1.02
2023-02-18T07:28:56.023Z,0.85
2023-02-18T07:31:23.868Z,1.08
2023-02-18T07:33:51.467Z,1.48
2023-02-18T07:36:19.093Z,1.08
2023-02-18T07:38:46.743Z,0.93
2023-02-18T07:41:20.082Z,1.23
2023-02-18T07:46:15.255Z,0.98
2023-02-18T07:48:42.997Z,0.90
2023-02-18T07:51:12.572Z,0.90
2023-02-18T07:53:41.584Z,1.10
2023-02-18T07:56:09.620Z,0.95
2023-02-18T07:58:39.665Z,1.10
2023-02-18T08:01:09.805Z,1.00
2023-02-18T08:03:38.027Z,1.00
2023-02-18T08:06:06.956Z,0.93
2023-02-18T08:08:37.086Z,1.00
2023-02-18T08:11:18.396Z,1.08
2023-02-18T08:13:48.576Z,1.10
2023-02-18T08:16:16.501Z,3.03
2023-02-18T08:18:44.409Z,1.00
2023-02-18T08:21:12.246Z,0.90
2023-02-18T08:23:39.941Z,1.17
2023-02-18T08:26:08.189Z,0.90
2023-02-18T08:28:43.073Z,0.88
2023-02-18T08:31:19.119Z,1.02
2023-02-18T08:33:46.729Z,0.90
2023-02-18T08:36:14.499Z,1.20
2023-02-18T08:38:42.080Z,1.00
2023-02-18T08:41:10.948Z,0.80
2023-02-18T08:43:38.955Z,0.70
2023-02-18T08:46:07.092Z,0.80
2023-02-18T08:48:36.140Z,0.90
2023-02-18T08:51:12.955Z,0.75
2023-02-18T08:53:42.035Z,0.88
2023-02-18T08:56:10.852Z,0.88
2023-02-18T08:58:38.896Z,0.88
2023-02-18T09:01:08.821Z,0.82
2023-02-18T09:03:38.071Z,0.88
2023-02-18T09:06:06.577Z,0.80
2023-02-18T09:08:34.282Z,0.80
2023-02-18T09:11:04.421Z,0.90
2023-02-18T09:13:32.656Z,0.80
2023-02-18T09:16:03.444Z,0.90
2023-02-18T09:18:31.347Z,0.90
2023-02-18T09:21:01.712Z,0.93
2023-02-18T09:23:31.813Z,0.70
2023-02-18T09:25:59.743Z,0.82
2023-02-18T09:28:27.712Z,0.90
2023-02-18T09:30:55.354Z,0.82
2023-02-18T09:33:23.468Z,1.10
2023-02-18T09:35:51.268Z,0.80
2023-02-18T09:38:20.157Z,0.90
2023-02-18T09:40:52.746Z,0.95
2023-02-18T09:43:30.072Z,1.03
2023-02-18T09:45:59.214Z,0.82
2023-02-18T09:48:29.421Z,0.70
2023-02-18T09:50:57.368Z,1.02
2023-02-18T09:53:27.021Z,0.75
2023-02-18T09:55:57.214Z,1.20
2023-02-18T09:58:27.573Z,0.90
2023-02-18T10:01:03.341Z,0.90
2023-02-18T10:03:31.569Z,0.80
2023-02-18T10:06:01.450Z,0.75
2023-02-18T10:08:34.210Z,0.90
2023-02-18T10:11:01.979Z,1.13
2023-02-18T10:13:32.126Z,0.80
2023-02-18T10:16:00.174Z,0.65
2023-02-18T10:18:31.329Z,0.90
2023-02-18T10:21:06.178Z,0.68
2023-02-18T10:23:39.049Z,1.13
2023-02-18T10:26:11.226Z,1.45
2023-02-18T10:28:39.850Z,1.60
2023-02-18T10:31:11.351Z,0.77
2023-02-18T10:33:47.221Z,0.85
2023-02-18T10:36:25.694Z,0.93
2023-02-18T10:39:16.381Z,1.13
2023-02-18T10:41:52.490Z,1.15
2023-02-18T10:44:27.536Z,1.20
2023-02-18T10:47:03.349Z,0.77
2023-02-18T10:49:49.820Z,1.00
2023-02-18T10:52:19.286Z,1.02
2023-02-18T10:54:54.032Z,0.80
2023-02-18T10:57:24.548Z,1.02
2023-02-18T11:00:01.342Z,1.10
2023-02-18T11:02:32.545Z,1.10
2023-02-18T11:05:06.501Z,0.80
2023-02-18T11:07:36.388Z,0.82
2023-02-18T11:10:16.956Z,0.90
2023-02-18T11:12:47.381Z,0.95
2023-02-18T11:15:21.612Z,0.90
2023-02-18T11:17:51.800Z,0.70
2023-02-18T11:20:29.620Z,0.77
2023-02-18T11:23:17.990Z,0.90
2023-02-18T11:25:58.063Z,1.13
2023-02-18T11:28:32.437Z,0.75
2023-02-18T11:31:03.483Z,0.98
2023-02-18T11:33:35.547Z,0.52
2023-02-18T11:36:15.167Z,1.00
2023-02-18T11:38:47.672Z,0.68
2023-02-18T11:41:19.902Z,0.70
2023-02-18T11:43:50.790Z,1.00
2023-02-18T11:46:20.517Z,0.60
2023-02-18T11:48:49.187Z,0.70
2023-02-18T11:51:19.063Z,0.90
2023-02-18T11:54:03.470Z,1.27
2023-02-18T11:56:35.345Z,0.88
2023-02-18T11:59:05.205Z,0.82
2023-02-18T12:01:44.642Z,1.27
2023-02-18T12:04:15.197Z,1.00
2023-02-18T12:06:53.329Z,1.00
2023-02-18T12:09:27.703Z,1.08
2023-02-18T12:12:00.254Z,1.20
2023-02-18T12:14:28.435Z,1.30
2023-02-18T12:17:27.555Z,0.98
2023-02-18T12:20:18.807Z,1.00
2023-02-18T12:22:52.576Z,1.58
2023-02-18T12:25:30.663Z,2.05
2023-02-18T12:28:13.909Z,1.83
2023-02-18T12:31:08.702Z,1.63
2023-02-18T12:33:46.288Z,1.30
2023-02-18T12:36:21.555Z,1.83
2023-02-18T12:39:02.862Z,1.70
2023-02-18T12:41:42.557Z,1.45
2023-02-18T12:44:27.512Z,1.70
2023-02-18T12:47:16.814Z,1.42
2023-02-18T12:49:59.553Z,1.30
2023-02-18T12:52:42.968Z,1.10
2023-02-18T12:55:28.338Z,1.45
2023-02-18T12:58:06.736Z,1.33
2023-02-18T13:00:53.764Z,1.52
2023-02-18T13:03:53.946Z,1.38
2023-02-18T13:06:48.973Z,1.77
2023-02-18T13:09:27.528Z,1.40
2023-02-18T13:12:08.074Z,1.80
2023-02-18T13:14:44.579Z,1.63
2023-02-18T13:17:17.218Z,1.55
2023-02-18T13:19:50.625Z,1.75
2023-02-18T13:24:50.447Z,1.90
2023-02-18T13:27:25.408Z,1.52
2023-02-18T13:30:17.479Z,1.50
2023-02-18T13:32:54.927Z,1.80
2023-02-18T13:35:29.616Z,1.58
2023-02-18T13:38:13.574Z,1.70
2023-02-18T13:40:41.754Z,1.55
2023-02-18T13:43:30.299Z,1.67
2023-02-18T13:46:11.750Z,1.20
2023-02-18T13:48:45.929Z,1.00
2023-02-18T13:51:16.443Z,1.08
2023-02-18T13:53:50.462Z,1.17
2023-02-18T13:56:28.407Z,0.90
2023-02-18T13:59:02.296Z,0.93
2023-02-18T14:01:41.293Z,1.02
2023-02-18T14:04:49.192Z,0.73
2023-02-18T14:07:47.794Z,0.77
2023-02-18T14:10:32.678Z,0.70
2023-02-18T14:13:24.539Z,0.70
2023-02-18T14:15:56.534Z,0.80
2023-02-18T14:18:35.410Z,0.60
2023-02-18T14:21:23.347Z,0.80
2023-02-18T14:24:06.198Z,0.50
2023-02-18T14:26:37.208Z,0.60
2023-02-18T14:29:19.469Z,0.80
2023-02-18T14:31:54.441Z,1.33
2023-02-18T14:34:48.080Z,0.70
2023-02-18T14:37:52.967Z,0.65
2023-02-18T14:40:57.379Z,0.40
2023-02-18T14:43:35.157Z,0.60
2023-02-18T14:46:15.181Z,0.68
2023-02-18T14:48:59.978Z,0.38
2023-02-18T14:51:31.526Z,0.55
2023-02-18T14:54:05.143Z,0.70
2023-02-18T14:56:39.197Z,0.50
2023-02-18T14:59:07.537Z,0.50
2023-02-18T15:01:36.547Z,0.70
2023-02-18T15:04:05.242Z,0.60
2023-02-18T15:06:34.893Z,0.68
2023-02-18T15:09:14.800Z,0.63
2023-02-18T15:11:47.831Z,0.70
2023-02-18T15:14:19.456Z,0.60
2023-02-18T15:16:49.273Z,0.60
2023-02-18T15:19:19.978Z,0.52
2023-02-18T15:21:50.402Z,0.60
2023-02-18T15:24:26.336Z,0.60
2023-02-18T15:26:56.622Z,0.75
2023-02-18T15:29:26.196Z,0.80
2023-02-18T15:31:57.571Z,0.70
2023-02-18T15:34:34.535Z,0.70
2023-02-18T15:37:04.188Z,0.70
2023-02-18T15:39:33.585Z,0.60
2023-02-18T15:42:04.506Z,0.80
2023-02-18T15:44:35.272Z,0.68
2023-02-18T15:47:08.128Z,0.90
2023-02-18T15:49:37.539Z,0.90
2023-02-18T15:52:06.669Z,0.70
2023-02-18T15:54:40.423Z,0.60
2023-02-18T15:57:13.683Z,0.68
2023-02-18T15:59:46.515Z,0.65
2023-02-18T16:02:20.183Z,0.60
2023-02-18T16:04:52.025Z,0.70
2023-02-18T16:07:24.491Z,0.65
2023-02-18T16:10:08.509Z,0.77
2023-02-18T16:12:40.323Z,0.80
2023-02-18T16:15:16.807Z,0.60
2023-02-18T16:17:45.970Z,0.70
2023-02-18T16:20:24.493Z,1.00
2023-02-18T16:22:54.418Z,0.70
2023-02-18T16:25:26.952Z,0.90
2023-02-18T16:28:04.204Z,0.80
2023-02-18T16:30:33.804Z,0.82
2023-02-18T16:33:01.548Z,1.00
2023-02-18T16:35:47.503Z,1.00
2023-02-18T16:38:18.316Z,1.10
2023-02-18T16:40:47.526Z,0.70
2023-02-18T16:43:16.418Z,0.90
2023-02-18T16:45:48.439Z,0.80
2023-02-18T16:48:20.608Z,0.70
2023-02-18T16:50:50.463Z,1.00
2023-02-18T16:53:18.038Z,0.90
2023-02-18T16:55:47.479Z,1.20
2023-02-18T16:58:15.026Z,0.98
2023-02-18T17:00:44.055Z,0.90
2023-02-18T17:03:13.499Z,0.90
2023-02-18T17:05:41.424Z,1.13
2023-02-18T17:08:17.058Z,0.95
2023-02-18T17:10:44.638Z,1.30
2023-02-18T17:13:16.719Z,1.40
2023-02-18T17:15:47.793Z,1.30
2023-02-18T17:18:15.442Z,1.10
2023-02-18T17:20:43.332Z,1.48
2023-02-18T17:23:14.849Z,1.70
2023-02-18T17:25:42.922Z,1.33
2023-02-18T17:28:10.560Z,1.20
2023-02-18T17:30:41.463Z,1.00
2023-02-18T17:33:12.848Z,1.90
2023-02-18T17:35:40.392Z,1.13
2023-02-18T17:38:11.339Z,1.27
2023-02-18T17:40:38.910Z,1.10
2023-02-18T17:43:07.076Z,1.20
2023-02-18T17:45:37.451Z,1.40
2023-02-18T17:48:06.745Z,1.10
2023-02-18T17:50:34.254Z,1.63
2023-02-18T17:53:01.933Z,1.40
2023-02-18T17:55:31.814Z,1.20
2023-02-18T17:58:00.149Z,1.33
2023-02-18T18:00:30.244Z,1.60
2023-02-18T18:02:58.227Z,1.85
2023-02-18T18:05:29.296Z,1.35
2023-02-18T18:07:57.092Z,1.40
2023-02-18T18:10:30.467Z,1.17
2023-02-18T18:15:29.304Z,1.10
2023-02-18T18:17:58.155Z,1.50
2023-02-18T18:20:28.582Z,1.20
2023-02-18T18:22:59.305Z,1.20
2023-02-18T18:25:28.564Z,1.40
2023-02-18T18:27:56.430Z,1.30
2023-02-18T18:30:25.731Z,1.13
2023-02-18T18:32:54.125Z,1.40
2023-02-18T18:35:26.221Z,1.25
2023-02-18T18:37:55.706Z,1.27
2023-02-18T18:40:26.473Z,1.15
2023-02-18T18:42:56.418Z,1.10
2023-02-18T18:45:26.284Z,1.25
2023-02-18T18:47:54.337Z,1.23
2023-02-18T18:50:23.699Z,1.20
2023-02-18T18:52:52.488Z,1.60
2023-02-18T18:55:30.264Z,1.20
2023-02-18T18:57:58.604Z,1.50
2023-02-18T19:00:29.115Z,1.38
2023-02-18T19:02:56.844Z,2.25
2023-02-18T19:05:28.093Z,1.40
2023-02-18T19:07:56.339Z,1.30
2023-02-18T19:10:28.242Z,1.30
2023-02-18T19:12:56.441Z,1.40
2023-02-18T19:15:24.709Z,1.90
2023-02-18T19:17:54.614Z,1.17
2023-02-18T19:20:24.235Z,1.17
2023-02-18T19:22:52.239Z,1.30
2023-02-18T19:25:21.454Z,0.93
2023-02-18T19:27:51.360Z,1.30
2023-02-18T19:30:22.847Z,1.40
2023-02-18T19:32:51.339Z,1.20
2023-02-18T19:35:19.744Z,1.13
2023-02-18T19:37:47.872Z,1.33
2023-02-18T19:40:18.096Z,1.45
2023-02-18T19:42:45.617Z,1.10
2023-02-18T19:45:15.688Z,1.13
2023-02-18T19:47:43.410Z,1.13
2023-02-18T19:50:14.148Z,1.13
2023-02-18T19:52:41.813Z,1.45
2023-02-18T19:55:10.149Z,1.50
2023-02-18T19:57:37.856Z,1.35
2023-02-18T20:00:08.889Z,1.42
2023-02-18T20:02:44.030Z,1.50
2023-02-18T20:05:13.794Z,1.70
2023-02-18T20:07:56.409Z,1.27
2023-02-18T20:10:25.245Z,1.40
2023-02-18T20:12:54.515Z,1.40
2023-02-18T20:15:23.020Z,1.35
2023-02-18T20:17:51.987Z,1.70
2023-02-18T20:20:20.495Z,1.40
2023-02-18T20:22:48.297Z,1.55
2023-02-18T20:25:15.939Z,1.38
2023-02-18T20:27:59.480Z,1.80
2023-02-18T20:30:27.869Z,1.33
2023-02-18T20:32:56.807Z,1.60
2023-02-18T20:35:24.462Z,1.75
2023-02-18T20:37:52.027Z,1.77
2023-02-18T20:40:19.905Z,2.20
2023-02-18T20:42:47.569Z,1.67
2023-02-18T20:45:15.219Z,2.05
2023-02-18T20:47:42.854Z,1.92
2023-02-18T20:50:12.023Z,2.10
2023-02-18T20:52:40.446Z,2.80
2023-02-18T20:55:08.188Z,2.47
2023-02-18T20:57:35.935Z,2.30
2023-02-18T21:00:05.964Z,2.63
2023-02-18T21:02:33.604Z,2.58
2023-02-18T21:05:01.232Z,2.60
2023-02-18T21:07:30.167Z,2.58
2023-02-18T21:09:57.792Z,3.05
2023-02-18T21:12:25.433Z,2.75
2023-02-18T21:14:53.043Z,2.78
2023-02-18T21:17:22.031Z,2.90
2023-02-18T21:19:49.698Z,2.63
2023-02-18T21:22:17.292Z,2.70
2023-02-18T21:24:46.183Z,3.10
2023-02-18T21:27:13.794Z,2.70
2023-02-18T21:29:41.445Z,2.80
2023-02-18T21:32:09.204Z,3.00
2023-02-18T21:34:36.987Z,2.83
2023-02-18T21:37:04.618Z,3.08
2023-02-18T21:39:32.194Z,3.28
2023-02-18T21:42:03.989Z,3.13
2023-02-18T21:44:41.744Z,3.30
2023-02-18T21:47:10.184Z,2.90
2023-02-18T21:49:37.800Z,3.15
2023-02-18T21:52:09.251Z,3.45
2023-02-18T21:54:39.706Z,3.10
2023-02-18T21:57:11.465Z,3.03
2023-02-18T21:59:39.486Z,3.17
2023-02-18T22:02:09.871Z,3.30
2023-02-18T22:04:37.898Z,2.88
2023-02-18T22:07:05.476Z,3.05
2023-02-18T22:09:33.067Z,3.20
2023-02-18T22:12:00.828Z,2.85
2023-02-18T22:14:29.974Z,3.22
2023-02-18T22:16:57.696Z,3.53
2023-02-18T22:19:25.585Z,2.63
2023-02-18T22:21:53.198Z,2.42
2023-02-18T22:24:20.821Z,2.63
2023-02-18T22:26:49.021Z,2.60
2023-02-18T22:29:18.529Z,2.58
2023-02-18T22:31:49.382Z,2.40
2023-02-18T22:34:17.126Z,2.50
2023-02-18T22:36:44.724Z,2.50
2023-02-18T22:39:12.570Z,2.20
2023-02-18T22:41:40.240Z,1.90
2023-02-18T22:44:10.135Z,2.42
2023-02-18T22:46:38.528Z,2.13
2023-02-18T22:49:08.099Z,1.90
2023-02-18T22:51:38.367Z,1.80
2023-02-18T22:54:07.301Z,1.83
2023-02-18T22:56:34.938Z,2.05
2023-02-18T22:59:02.927Z,1.90
2023-02-18T23:01:33.113Z,1.95
2023-02-18T23:04:05.897Z,1.92
2023-02-18T23:06:35.265Z,1.95
2023-02-18T23:09:03.228Z,1.90
2023-02-18T23:11:31.012Z,2.20
2023-02-18T23:14:16.430Z,1.75
2023-02-18T23:17:01.716Z,2.30
2023-02-18T23:19:31.755Z,2.00
2023-02-18T23:22:00.820Z,2.60
2023-02-18T23:31:16.937Z,2.25
2023-02-18T23:33:45.214Z,1.83
2023-02-18T23:36:15.271Z,2.03
2023-02-18T23:38:47.682Z,2.28
2023-02-18T23:41:15.258Z,2.38
2023-02-18T23:43:42.876Z,2.17
2023-02-18T23:46:10.470Z,2.17
2023-02-18T23:48:38.562Z,2.33
2023-02-18T23:51:09.154Z,2.25
2023-02-18T23:53:38.075Z,2.50
2023-02-18T23:56:11.675Z,2.35
2023-02-18T23:58:40.106Z,2.33
